Time;durP1;ratioP1;P1;durP2;ratioP2;P2;SDS_P1;SDS_P2;PMS_P1;PMS_P2;Temp;Humidity;BMP_temperature;BMP_pressure;BME280_temperature;BME280_humidity;BME280_pressure;Samples;Min_cycle;Max_cycle;Signal;HPM_P1;HPM_P2
2023/01/22 00:01:48;;;;;;;48.20;21.65;;;-2.40;99.90;;;;;;6255026;22;20035;-88
2023/01/22 00:04:40;;;;;;;45.55;21.90;;;-2.50;99.90;;;;;;6275334;22;20311;-88
2023/01/22 00:07:27;;;;;;;47.45;23.77;;;-2.40;99.90;;;;;;6256360;22;20023;-87
2023/01/22 00:10:17;;;;;;;47.70;23.20;;;-2.50;99.90;;;;;;6255439;22;20046;-86
2023/01/22 00:13:05;;;;;;;44.55;21.73;;;-2.50;99.90;;;;;;6254889;22;20303;-88
2023/01/22 00:15:53;;;;;;;43.38;21.15;;;-2.50;99.90;;;;;;6284357;22;20102;-87
2023/01/22 00:18:40;;;;;;;47.15;23.08;;;-2.50;99.90;;;;;;6291179;22;20050;-87
2023/01/22 00:21:29;;;;;;;47.72;22.42;;;-2.50;99.90;;;;;;6294141;22;20032;-86
2023/01/22 00:24:17;;;;;;;49.45;23.48;;;-2.50;99.90;;;;;;6295978;22;20015;-89
2023/01/22 00:27:05;;;;;;;48.17;23.08;;;-2.50;99.90;;;;;;6258236;22;20024;-89
2023/01/22 00:29:54;;;;;;;54.50;21.77;;;-2.50;99.90;;;;;;6265931;22;20030;-89
2023/01/22 00:32:43;;;;;;;43.63;21.23;;;-2.50;99.90;;;;;;6287223;22;20023;-87
2023/01/22 00:35:33;;;;;;;46.65;21.10;;;-2.50;99.90;;;;;;6280956;22;20027;-87
2023/01/22 00:38:20;;;;;;;48.10;22.20;;;-2.50;99.90;;;;;;6277119;22;20085;-87
2023/01/22 00:41:19;;;;;;;44.67;22.27;;;-2.50;99.90;;;;;;6274405;22;20054;-88
2023/01/22 00:44:07;;;;;;;44.53;22.45;;;-2.50;99.90;;;;;;6253887;22;20419;-87
2023/01/22 00:46:56;;;;;;;41.95;21.45;;;-2.50;99.90;;;;;;6275332;22;20099;-88
2023/01/22 00:49:43;;;;;;;48.20;23.90;;;-2.50;99.90;;;;;;6275122;22;20024;-88
2023/01/22 00:52:31;;;;;;;50.95;21.38;;;-2.40;99.90;;;;;;6252701;22;20031;-86
2023/01/22 00:55:22;;;;;;;42.15;21.13;;;-2.50;99.90;;;;;;6276109;22;20067;-87
2023/01/22 00:58:09;;;;;;;45.30;21.77;;;-2.40;99.90;;;;;;6275648;22;20087;-87
2023/01/22 01:01:00;;;;;;;44.92;21.65;;;-2.40;99.90;;;;;;6253859;22;20031;-85
2023/01/22 01:03:50;;;;;;;44.15;21.73;;;-2.40;99.90;;;;;;6274140;22;20034;-87
2023/01/22 01:06:38;;;;;;;44.65;22.55;;;-2.40;99.90;;;;;;6251563;22;20268;-87
2023/01/22 01:09:25;;;;;;;42.15;19.60;;;-2.40;99.90;;;;;;6274684;22;20314;-87
2023/01/22 01:12:12;;;;;;;49.70;22.40;;;-2.40;99.90;;;;;;6289291;22;20058;-86
2023/01/22 01:15:01;;;;;;;41.50;21.58;;;-2.40;99.90;;;;;;6274668;22;20098;-87
2023/01/22 01:17:49;;;;;;;37.05;20.65;;;-2.30;99.90;;;;;;6274491;22;20030;-87
2023/01/22 01:20:36;;;;;;;46.63;22.58;;;-2.30;99.90;;;;;;6253635;22;20031;-87
2023/01/22 01:23:24;;;;;;;43.92;21.25;;;-2.30;99.90;;;;;;6275144;22;20053;-86
2023/01/22 01:26:13;;;;;;;44.65;21.42;;;-2.30;99.90;;;;;;6275988;22;20059;-88
2023/01/22 01:29:03;;;;;;;46.27;23.03;;;-2.30;99.90;;;;;;6276972;22;20100;-87
2023/01/22 01:31:53;;;;;;;42.15;21.17;;;-2.30;99.90;;;;;;6275652;22;20097;-87
2023/01/22 01:34:40;;;;;;;43.08;20.77;;;-2.30;99.90;;;;;;6252916;22;20028;-88
2023/01/22 01:37:35;;;;;;;40.83;20.98;;;-2.20;99.90;;;;;;6252060;22;20116;-87
2023/01/22 01:40:23;;;;;;;42.40;22.13;;;-2.20;99.90;;;;;;6255802;22;20020;-89
2023/01/22 01:43:15;;;;;;;40.05;20.40;;;-2.20;99.90;;;;;;6256114;22;20024;-87
2023/01/22 01:46:14;;;;;;;40.05;20.05;;;-2.20;99.90;;;;;;6253490;22;20085;-87
2023/01/22 01:49:04;;;;;;;52.85;21.90;;;-2.20;99.90;;;;;;6276649;22;20375;-87
2023/01/22 01:51:54;;;;;;;42.67;20.75;;;-2.20;99.90;;;;;;6251321;22;20326;-89
2023/01/22 01:54:48;;;;;;;41.08;20.10;;;-2.20;99.90;;;;;;6276613;22;20121;-88
2023/01/22 01:57:35;;;;;;;38.50;21.30;;;-2.20;99.90;;;;;;6253727;22;20028;-87
2023/01/22 02:00:37;;;;;;;40.47;21.42;;;-2.20;99.90;;;;;;6288296;22;20027;-87
2023/01/22 02:03:27;;;;;;;44.83;22.45;;;-2.20;99.90;;;;;;6277809;22;20391;-88
2023/01/22 02:06:16;;;;;;;46.35;21.88;;;-2.20;99.90;;;;;;6279193;22;20311;-88
2023/01/22 02:09:04;;;;;;;44.40;21.48;;;-2.10;99.90;;;;;;6285476;22;20024;-87
2023/01/22 02:11:53;;;;;;;43.20;22.17;;;-2.10;99.90;;;;;;6254812;22;20027;-88
2023/01/22 02:14:44;;;;;;;43.53;21.65;;;-2.10;99.90;;;;;;6278175;22;20019;-87
2023/01/22 02:17:32;;;;;;;43.55;21.73;;;-2.10;99.90;;;;;;6276995;22;20055;-87
2023/01/22 02:20:19;;;;;;;45.13;21.95;;;-2.10;99.90;;;;;;6256575;22;20024;-89
2023/01/22 02:23:12;;;;;;;50.55;23.80;;;-2.10;99.90;;;;;;6289539;22;20020;-88
2023/01/22 02:26:00;;;;;;;47.60;23.00;;;-2.10;99.90;;;;;;6269889;22;20027;-89
2023/01/22 02:28:47;;;;;;;47.70;23.60;;;-2.10;99.90;;;;;;6270728;22;20028;-88
2023/01/22 02:31:35;;;;;;;46.90;23.73;;;-2.10;99.90;;;;;;6281912;22;20041;-81
2023/01/22 02:34:25;;;;;;;45.72;23.63;;;-2.00;99.90;;;;;;6251629;22;20016;-83
2023/01/22 02:37:12;;;;;;;48.22;25.15;;;-2.10;99.90;;;;;;6248546;22;20072;-83
2023/01/22 02:39:59;;;;;;;47.40;24.00;;;-2.00;99.90;;;;;;6268517;23;20060;-86
2023/01/22 02:42:46;;;;;;;49.60;24.70;;;-2.10;99.90;;;;;;6238563;23;20059;-87
2023/01/22 02:45:41;;;;;;;47.22;24.63;;;-2.00;99.90;;;;;;6224961;23;20034;-87
2023/01/22 02:48:28;;;;;;;47.90;25.13;;;-2.00;99.90;;;;;;6262861;23;20035;-86
2023/01/22 02:51:16;;;;;;;51.40;24.73;;;-2.00;99.90;;;;;;6227788;23;20024;-86
2023/01/22 02:54:09;;;;;;;49.38;25.05;;;-2.00;99.90;;;;;;6245947;23;20032;-87
2023/01/22 02:57:10;;;;;;;45.90;23.85;;;-2.00;99.90;;;;;;6203233;23;20038;-89
2023/01/22 02:59:57;;;;;;;52.67;25.15;;;-2.00;99.90;;;;;;6246485;23;20071;-87
2023/01/22 03:02:45;;;;;;;47.08;24.48;;;-2.00;99.90;;;;;;6252759;23;20024;-87
2023/01/22 03:05:33;;;;;;;50.15;25.58;;;-2.00;99.90;;;;;;6224108;23;20065;-88
2023/01/22 03:08:20;;;;;;;47.30;23.80;;;-2.00;99.90;;;;;;6247983;23;20034;-89
2023/01/22 03:11:11;;;;;;;51.47;25.83;;;-2.00;99.90;;;;;;6247201;23;20024;-88
2023/01/22 03:23:26;;;;;;;48.25;24.33;;;-2.00;99.90;;;;;;6247002;23;20386;-87
2023/01/22 03:26:19;;;;;;;49.88;24.80;;;-2.00;99.90;;;;;;6226901;23;20106;-88
2023/01/22 03:29:09;;;;;;;51.58;26.35;;;-2.00;99.90;;;;;;6246218;23;20031;-87
2023/01/22 03:32:03;;;;;;;49.03;24.60;;;-2.00;99.90;;;;;;6223708;23;20024;-88
2023/01/22 03:34:50;;;;;;;57.10;27.23;;;-2.00;99.90;;;;;;6232515;23;20024;-87
2023/01/22 03:37:38;;;;;;;53.10;26.35;;;-2.00;99.90;;;;;;6228287;23;20028;-87
2023/01/22 03:40:31;;;;;;;53.78;26.90;;;-2.00;99.90;;;;;;6224427;23;20048;-88
2023/01/22 03:43:18;;;;;;;55.90;25.80;;;-2.00;99.90;;;;;;6247244;23;20024;-87
2023/01/22 03:46:16;;;;;;;53.08;25.08;;;-2.00;99.90;;;;;;6244965;23;20024;-88
2023/01/22 03:49:04;;;;;;;49.08;24.92;;;-2.00;99.90;;;;;;6222956;23;20024;-87
2023/01/22 03:51:52;;;;;;;52.13;27.02;;;-2.00;99.90;;;;;;6202756;23;20024;-88
2023/01/22 03:54:44;;;;;;;57.72;27.63;;;-1.90;99.90;;;;;;6246476;23;20375;-89
2023/01/22 03:57:31;;;;;;;56.80;27.00;;;-2.00;99.90;;;;;;6246717;23;20024;-87
2023/01/22 04:00:19;;;;;;;51.05;26.30;;;-2.00;99.90;;;;;;6247574;23;20020;-87
2023/01/22 04:03:07;;;;;;;55.65;26.35;;;-2.00;99.90;;;;;;6207852;23;20112;-87
2023/01/22 04:05:59;;;;;;;54.63;27.48;;;-2.00;99.90;;;;;;6247579;23;20028;-87
2023/01/22 04:08:59;;;;;;;;;;;-2.00;99.90;;;;;;6259750;22;20085;-87
2023/01/22 04:11:46;;;;;;;49.80;24.98;;;-2.00;99.90;;;;;;6253616;23;20299;-88
2023/01/22 04:14:33;;;;;;;61.90;27.65;;;-2.00;99.90;;;;;;6251268;23;20432;-86
2023/01/22 04:17:23;;;;;;;59.75;27.92;;;-2.00;99.90;;;;;;6250225;23;20020;-88
2023/01/22 04:20:13;;;;;;;56.50;28.13;;;-2.00;99.90;;;;;;6229999;23;20100;-87
2023/01/22 04:23:00;;;;;;;57.70;27.83;;;-2.00;99.90;;;;;;6263977;23;20042;-87
2023/01/22 04:25:51;;;;;;;65.22;30.85;;;-1.90;99.90;;;;;;6252513;23;20059;-87
2023/01/22 04:28:40;;;;;;;58.70;29.05;;;-2.00;99.90;;;;;;6247368;23;20076;-89
2023/01/22 04:31:31;;;;;;;61.97;29.83;;;-1.90;99.90;;;;;;6248555;23;20713;-86
2023/01/22 04:34:19;;;;;;;62.35;27.23;;;-1.90;99.90;;;;;;6247877;23;20032;-88
2023/01/22 04:37:12;;;;;;;65.05;29.65;;;-1.90;99.90;;;;;;6225627;23;20023;-88
2023/01/22 04:40:04;;;;;;;72.53;32.63;;;-1.90;99.90;;;;;;6248282;23;20020;-86
2023/01/22 04:42:51;;;;;;;59.45;28.70;;;-1.90;99.90;;;;;;6251337;23;20025;-86
2023/01/22 04:45:38;;;;;;;60.38;28.70;;;-1.90;99.90;;;;;;6233064;23;20035;-87
2023/01/22 04:48:26;;;;;;;63.47;28.67;;;-1.90;99.90;;;;;;6248161;23;20415;-88
2023/01/22 04:51:13;;;;;;;69.40;31.35;;;-1.90;99.90;;;;;;6244085;23;20027;-86
2023/01/22 04:54:05;;;;;;;62.90;29.80;;;-1.90;99.90;;;;;;6246089;23;20024;-87
2023/01/22 04:56:55;;;;;;;71.40;31.48;;;-1.90;99.90;;;;;;6245022;23;20427;-87
2023/01/22 04:59:42;;;;;;;71.65;32.72;;;-1.90;99.90;;;;;;6257067;23;20031;-88
2023/01/22 05:02:35;;;;;;;69.78;30.65;;;-1.90;99.90;;;;;;6261012;23;20051;-88
2023/01/22 05:05:24;;;;;;;64.80;30.13;;;-1.90;99.90;;;;;;6237494;23;20004;-90
2023/01/22 05:08:11;;;;;;;70.47;30.30;;;-1.90;99.90;;;;;;6237212;23;20115;-88
2023/01/22 05:11:04;;;;;;;66.57;30.42;;;-1.90;99.90;;;;;;6244475;22;20012;-84
2023/01/22 05:13:55;;;;;;;68.55;30.42;;;-1.80;99.90;;;;;;6249249;22;20084;-83
2023/01/22 05:16:57;;;;;;;72.18;32.13;;;-1.90;99.90;;;;;;6266556;22;20020;-88
2023/01/22 05:19:44;;;;;;;62.92;29.13;;;-1.90;99.90;;;;;;6258317;23;20020;-88
2023/01/22 05:22:34;;;;;;;66.55;30.38;;;-1.90;99.90;;;;;;6261256;23;20024;-88
2023/01/22 05:25:24;;;;;;;67.07;30.35;;;-1.90;99.90;;;;;;6258042;23;20024;-86
2023/01/22 05:28:11;;;;;;;77.55;31.33;;;-1.90;99.90;;;;;;6252805;23;20020;-88
2023/01/22 05:30:58;;;;;;;62.53;29.95;;;-1.90;99.90;;;;;;6248998;23;20035;-88
2023/01/22 05:33:46;;;;;;;72.35;31.77;;;-1.90;99.90;;;;;;6250236;23;20511;-89
2023/01/22 05:36:36;;;;;;;67.20;29.63;;;-1.90;99.90;;;;;;6249421;23;20024;-87
2023/01/22 05:39:23;;;;;;;67.88;30.92;;;-1.80;99.90;;;;;;6227381;23;20028;-87
2023/01/22 05:42:14;;;;;;;67.25;29.35;;;-1.80;99.90;;;;;;6225456;23;20063;-87
2023/01/22 05:45:20;;;;;;;70.50;30.65;;;-1.90;99.90;;;;;;6227795;23;20415;-89
2023/01/22 05:48:10;;;;;;;66.45;29.73;;;-1.80;99.90;;;;;;6244855;23;20024;-87
2023/01/22 05:51:03;;;;;;;72.65;31.15;;;-1.80;99.90;;;;;;6224565;23;20039;-88
2023/01/22 05:53:50;;;;;;;68.45;30.75;;;-1.80;99.90;;;;;;6247845;23;20039;-88
2023/01/22 05:56:37;;;;;;;67.50;32.28;;;-1.80;99.90;;;;;;6246988;23;20034;-89
2023/01/22 05:59:25;;;;;;;73.28;30.75;;;-1.80;99.90;;;;;;6259500;23;20028;-88
2023/01/22 06:02:12;;;;;;;66.30;29.45;;;-1.80;99.90;;;;;;6204599;23;20412;-87
2023/01/22 06:04:59;;;;;;;65.70;31.50;;;-1.80;99.90;;;;;;6246888;23;20028;-87
2023/01/22 06:08:00;;;;;;;71.88;31.33;;;-1.80;99.90;;;;;;6243703;23;20110;-86
2023/01/22 06:10:51;;;;;;;65.03;30.60;;;-1.70;99.90;;;;;;6246376;23;20024;-87
2023/01/22 06:13:39;;;;;;;66.95;31.27;;;-1.80;99.90;;;;;;6246699;23;20028;-87
2023/01/22 06:16:28;;;;;;;65.65;30.25;;;-1.80;99.90;;;;;;6225716;23;20051;-87
2023/01/22 06:19:17;;;;;;;68.82;31.25;;;-1.80;99.90;;;;;;6204688;23;20024;-88
2023/01/22 06:22:07;;;;;;;69.55;30.63;;;-1.80;99.90;;;;;;6248046;23;20035;-87
2023/01/22 06:24:58;;;;;;;70.75;30.52;;;-1.80;99.90;;;;;;6224252;23;20121;-85
2023/01/22 06:27:46;;;;;;;77.57;32.40;;;-1.80;99.90;;;;;;6226327;23;20020;-87
2023/01/22 06:30:34;;;;;;;75.60;31.95;;;-1.80;99.90;;;;;;6227425;23;20047;-87
2023/01/22 06:33:23;;;;;;;64.75;29.67;;;-1.80;99.90;;;;;;6223600;23;20028;-86
2023/01/22 06:36:12;;;;;;;67.50;30.33;;;-1.80;99.90;;;;;;6222885;23;20035;-88
2023/01/22 06:39:00;;;;;;;76.07;33.22;;;-1.80;99.90;;;;;;6245639;23;20430;-88
2023/01/22 06:41:47;;;;;;;77.40;31.10;;;-1.80;99.90;;;;;;6227857;22;20327;-88
2023/01/22 06:44:36;;;;;;;72.38;31.85;;;-1.80;99.90;;;;;;6227812;23;20119;-87
2023/01/22 06:47:31;;;;;;;68.75;30.70;;;-1.80;99.90;;;;;;6262134;23;20020;-87
2023/01/22 06:50:19;;;;;;;68.28;30.77;;;-1.80;99.90;;;;;;6254813;23;20032;-88
2023/01/22 06:53:06;;;;;;;71.30;31.42;;;-1.80;99.90;;;;;;6252323;23;20024;-87
2023/01/22 06:55:54;;;;;;;67.65;31.02;;;-1.80;99.90;;;;;;6225021;23;20024;-88
2023/01/22 06:58:41;;;;;;;79.85;33.08;;;-1.80;99.90;;;;;;6247068;23;20431;-87
2023/01/22 07:01:28;;;;;;;79.63;32.05;;;-1.80;99.90;;;;;;6224516;23;20020;-87
2023/01/22 07:04:15;;;;;;;72.28;30.83;;;-1.80;99.90;;;;;;6246251;23;20024;-88
2023/01/22 07:07:08;;;;;;;67.60;29.70;;;-1.80;99.90;;;;;;6246124;23;20024;-85
2023/01/22 07:09:55;;;;;;;71.28;29.98;;;-1.80;99.90;;;;;;6223946;23;20108;-85
2023/01/22 07:12:42;;;;;;;72.78;31.02;;;-1.80;99.90;;;;;;6246058;23;20043;-85
2023/01/22 07:15:29;;;;;;;69.10;31.35;;;-1.70;99.90;;;;;;6246913;23;20031;-86
2023/01/22 07:18:22;;;;;;;76.60;31.75;;;-1.80;99.90;;;;;;6249275;23;20044;-86
2023/01/22 07:21:12;;;;;;;74.20;29.63;;;-1.70;99.90;;;;;;6261751;23;20026;-85
2023/01/22 07:23:59;;;;;;;69.72;30.48;;;-1.70;99.90;;;;;;6240786;23;20028;-85
2023/01/22 07:26:48;;;;;;;76.32;31.17;;;-1.70;99.90;;;;;;6256168;23;20024;-85
2023/01/22 07:29:37;;;;;;;72.82;31.80;;;-1.70;99.90;;;;;;6257548;23;20027;-85
2023/01/22 07:32:24;;;;;;;73.97;31.25;;;-1.70;99.90;;;;;;6248824;23;20036;-85
2023/01/22 07:35:11;;;;;;;68.70;31.45;;;-1.70;99.90;;;;;;6258845;23;20379;-86
2023/01/22 07:37:59;;;;;;;73.13;31.23;;;-1.70;99.90;;;;;;6246959;23;20075;-86
2023/01/22 07:40:46;;;;;;;67.65;28.90;;;-1.60;99.90;;;;;;6244570;23;20027;-87
2023/01/22 07:43:34;;;;;;;70.03;30.15;;;-1.60;99.90;;;;;;6245597;23;20024;-84
2023/01/22 07:46:21;;;;;;;71.53;30.90;;;-1.50;99.90;;;;;;6246814;23;20028;-84
2023/01/22 07:49:10;;;;;;;66.03;29.40;;;-1.50;99.90;;;;;;6223989;23;20031;-86
2023/01/22 07:51:58;;;;;;;69.43;29.77;;;-1.50;99.90;;;;;;6225191;23;20114;-87
2023/01/22 07:54:45;;;;;;;78.20;34.78;;;-1.50;99.90;;;;;;6224624;23;20032;-85
2023/01/22 07:57:33;;;;;;;91.40;39.05;;;-1.40;99.90;;;;;;6247391;23;20046;-87
2023/01/22 08:00:20;;;;;;;76.55;33.65;;;-1.40;99.90;;;;;;6228655;23;20031;-84
2023/01/22 08:03:12;;;;;;;82.70;34.60;;;-1.40;99.90;;;;;;6230149;23;20024;-86
2023/01/22 08:06:00;;;;;;;85.93;35.28;;;-1.30;99.90;;;;;;6251646;23;20738;-84
2023/01/22 08:08:47;;;;;;;79.15;34.05;;;-1.30;99.90;;;;;;6247630;23;20019;-85
2023/01/22 08:11:34;;;;;;;72.53;29.98;;;-1.30;99.90;;;;;;6224158;23;20085;-85
2023/01/22 08:14:22;;;;;;;65.10;29.48;;;-1.10;99.90;;;;;;6244567;23;20466;-85
2023/01/22 08:17:09;;;;;;;61.63;27.98;;;-1.00;99.90;;;;;;6247110;23;20036;-86
2023/01/22 08:19:56;;;;;;;55.53;27.48;;;-0.90;99.90;;;;;;6246888;23;20024;-88
2023/01/22 08:22:44;;;;;;;57.70;27.95;;;-0.80;99.90;;;;;;6249711;23;20035;-86
2023/01/22 08:25:37;;;;;;;55.17;25.52;;;-0.60;99.90;;;;;;6246778;23;20024;-86
2023/01/22 08:28:25;;;;;;;46.67;24.73;;;-0.40;99.90;;;;;;6245411;23;20024;-87
2023/01/22 08:31:12;;;;;;;46.28;24.85;;;-0.30;99.90;;;;;;6222902;23;20155;-85
2023/01/22 08:34:13;;;;;;;41.85;22.75;;;-0.20;99.90;;;;;;6242278;23;20039;-87
2023/01/22 08:37:00;;;;;;;40.45;23.30;;;-0.20;99.90;;;;;;6243827;23;20024;-86
2023/01/22 08:39:48;;;;;;;40.97;23.17;;;-0.10;99.90;;;;;;6244078;23;20113;-87
2023/01/22 08:42:36;;;;;;;40.80;22.85;;;-0.10;99.90;;;;;;6242971;23;20031;-86
2023/01/22 08:45:23;;;;;;;36.97;22.00;;;0.00;99.90;;;;;;6225583;23;20031;-87
2023/01/22 08:48:15;;;;;;;38.28;21.30;;;-0.10;99.90;;;;;;6244461;23;20032;-87
2023/01/22 08:54:32;;;;;;;38.13;20.75;;;-0.20;99.90;;;;;;6249626;23;20015;-86
2023/01/22 08:57:19;;;;;;;35.53;20.55;;;-0.20;99.90;;;;;;6245952;23;20024;-86
2023/01/22 09:00:07;;;;;;;36.03;20.60;;;-0.20;99.90;;;;;;6244505;23;20043;-86
2023/01/22 09:02:58;;;;;;;36.20;21.00;;;-0.20;99.90;;;;;;6220769;23;20527;-86
2023/01/22 09:05:45;;;;;;;40.25;22.00;;;-0.20;99.90;;;;;;6242694;23;20020;-86
2023/01/22 09:08:33;;;;;;;41.97;23.00;;;-0.30;99.90;;;;;;6242853;23;20020;-85
2023/01/22 09:11:20;;;;;;;41.67;22.67;;;-0.30;99.90;;;;;;6243690;23;20086;-86
2023/01/22 09:14:08;;;;;;;42.35;22.60;;;-0.20;99.90;;;;;;6223101;23;20187;-86
2023/01/22 09:16:55;;;;;;;45.53;21.77;;;-0.10;99.90;;;;;;6248973;23;20178;-86
2023/01/22 09:19:43;;;;;;;40.03;21.92;;;-0.10;54.10;;;;;;6247876;23;20024;-87
2023/01/22 09:22:31;;;;;;;38.45;20.35;;;0.00;1.00;;;;;;6224992;23;20052;-88
2023/01/22 09:25:19;;;;;;;43.15;24.48;;;0.10;1.00;;;;;;6227158;23;20024;-86
2023/01/22 09:28:21;;;;;;;40.30;21.58;;;0.10;1.00;;;;;;6247094;23;20081;-86
2023/01/22 09:31:12;;;;;;;37.15;20.42;;;0.30;99.90;;;;;;6224391;23;20027;-87
2023/01/22 09:34:03;;;;;;;38.70;20.83;;;0.30;1.00;;;;;;6222923;23;20023;-86
2023/01/22 09:36:53;;;;;;;38.38;21.02;;;0.40;99.90;;;;;;6245323;23;20020;-86
2023/01/22 09:39:42;;;;;;;39.40;21.00;;;0.50;1.00;;;;;;6244492;23;20020;-85
2023/01/22 09:42:33;;;;;;;35.58;19.80;;;0.60;1.00;;;;;;6223978;23;20039;-87
2023/01/22 09:45:24;;;;;;;37.00;20.52;;;0.70;1.00;;;;;;6244533;23;20024;-85
2023/01/22 09:48:16;;;;;;;36.60;19.42;;;0.90;99.90;;;;;;6245421;23;20511;-86
2023/01/22 09:51:04;;;;;;;36.80;20.08;;;0.80;99.90;;;;;;6245262;23;20446;-86
2023/01/22 09:54:02;;;;;;;35.58;21.10;;;1.00;99.90;;;;;;6224661;23;20028;-86
2023/01/22 09:56:57;;;;;;;33.97;19.08;;;1.10;1.00;;;;;;6245212;23;20056;-86
2023/01/22 09:59:46;;;;;;;33.63;19.63;;;1.10;99.90;;;;;;6244659;23;20090;-87
2023/01/22 10:02:53;;;;;;;34.15;18.73;;;1.10;98.40;;;;;;6245642;23;20031;-89
2023/01/22 10:05:47;;;;;;;33.05;19.60;;;1.30;1.00;;;;;;6225584;23;20449;-86
2023/01/22 10:08:51;;;;;;;33.05;19.60;;;1.50;99.90;;;;;;6245750;23;20035;-88
2023/01/22 10:11:39;;;;;;;31.52;17.70;;;1.50;99.90;;;;;;6246320;23;20031;-88
2023/01/22 10:14:28;;;;;;;32.85;18.70;;;1.60;1.00;;;;;;6222833;23;20129;-85
2023/01/22 10:17:23;;;;;;;33.05;19.50;;;1.80;99.90;;;;;;6225767;23;20034;-87
2023/01/22 10:20:14;;;;;;;33.00;18.90;;;1.90;99.90;;;;;;6225009;23;20090;-87
2023/01/22 10:23:15;;;;;;;28.35;16.88;;;2.10;99.90;;;;;;6244704;23;20600;-86
2023/01/22 10:26:15;;;;;;;23.35;15.25;;;2.20;37.20;;;;;;6224996;23;20079;-86
2023/01/22 10:29:21;;;;;;;23.15;14.85;;;2.20;1.00;;;;;;6245786;23;20024;-87
2023/01/22 10:32:19;;;;;;;21.23;13.23;;;2.10;99.90;;;;;;6244114;23;20055;-88
2023/01/22 10:35:10;;;;;;;19.63;12.90;;;2.00;99.90;;;;;;6246416;23;20050;-86
2023/01/22 10:38:01;;;;;;;22.75;14.15;;;1.70;99.90;;;;;;6226107;23;20027;-87
2023/01/22 10:41:00;;;;;;;21.38;12.88;;;1.60;99.90;;;;;;6245286;23;20079;-87
2023/01/22 10:43:47;;;;;;;21.48;13.32;;;1.50;99.90;;;;;;6224344;23;20024;-87
2023/01/22 10:46:37;;;;;;;19.08;13.07;;;1.50;99.90;;;;;;6246019;23;20024;-87
2023/01/22 10:49:26;;;;;;;19.52;12.27;;;1.50;99.90;;;;;;6226360;23;20135;-86
2023/01/22 10:52:24;;;;;;;18.02;11.20;;;1.60;99.90;;;;;;6245386;23;20032;-87
2023/01/22 10:55:41;;;;;;;15.80;10.20;;;1.60;99.90;;;;;;6224408;23;20533;-87
2023/01/22 10:58:32;;;;;;;15.68;10.25;;;1.80;99.90;;;;;;6249073;22;20043;-87
2023/01/22 11:01:36;;;;;;;19.73;11.70;;;1.70;99.90;;;;;;6249242;22;20051;-87
2023/01/22 11:04:35;;;;;;;16.67;11.02;;;1.60;99.90;;;;;;6224916;23;20024;-86
2023/01/22 11:07:32;;;;;;;16.80;10.90;;;1.60;99.90;;;;;;6246285;23;20027;-86
2023/01/22 11:10:43;;;;;;;14.77;10.13;;;1.50;97.70;;;;;;6248203;23;20020;-87
2023/01/22 11:13:51;;;;;;;15.50;10.05;;;1.40;99.90;;;;;;6248393;23;20058;-87
2023/01/22 11:16:41;;;;;;;16.80;10.63;;;1.10;99.90;;;;;;6226151;23;20020;-85
2023/01/22 11:19:38;;;;;;;16.95;10.70;;;1.10;99.90;;;;;;6247703;23;20028;-87
2023/01/22 11:22:32;;;;;;;17.55;10.43;;;1.10;99.90;;;;;;6244847;23;20050;-87
2023/01/22 11:25:19;;;;;;;16.35;10.77;;;1.10;99.90;;;;;;6248667;23;20023;-86
2023/01/22 11:28:22;;;;;;;20.70;12.57;;;0.90;99.90;;;;;;6224579;23;20024;-87
2023/01/22 11:31:24;;;;;;;19.95;11.38;;;0.60;99.90;;;;;;6223801;23;20082;-87
2023/01/22 11:34:48;;;;;;;20.35;12.13;;;0.60;99.90;;;;;;6227177;23;20047;-86
2023/01/22 11:37:44;;;;;;;21.55;13.15;;;0.50;99.90;;;;;;6230199;23;20028;-87
2023/01/22 11:40:34;;;;;;;21.65;13.75;;;0.40;99.90;;;;;;6241367;23;20027;-87
2023/01/22 11:43:39;;;;;;;23.70;15.05;;;0.40;99.90;;;;;;6265569;23;20058;-86
2023/01/22 11:46:57;;;;;;;27.55;15.75;;;0.50;1.00;;;;;;6235094;23;20024;-87
2023/01/22 11:49:48;;;;;;;27.98;15.40;;;0.40;1.00;;;;;;6250118;23;20024;-87
2023/01/22 11:52:56;;;;;;;28.00;15.80;;;0.40;51.10;;;;;;6247312;23;20024;-86
2023/01/22 11:56:09;;;;;;;30.23;17.10;;;0.60;56.30;;;;;;6246300;23;20043;-87
2023/01/22 11:59:19;;;;;;;29.15;16.02;;;0.60;17.90;;;;;;6195518;23;20441;-87
2023/01/22 12:02:29;;;;;;;28.10;16.55;;;0.70;1.00;;;;;;6247548;23;20020;-87
2023/01/22 12:05:35;;;;;;;25.73;15.80;;;0.50;1.00;;;;;;6224955;23;20024;-86
2023/01/22 12:08:41;;;;;;;31.75;17.52;;;0.50;32.90;;;;;;6244705;23;20116;-86
2023/01/22 12:11:41;;;;;;;30.73;16.52;;;0.50;99.90;;;;;;6245545;23;20024;-86
2023/01/22 12:15:01;;;;;;;29.42;16.88;;;0.40;99.90;;;;;;6257922;23;20028;-87
2023/01/22 12:18:31;;;;;;;27.85;15.35;;;0.40;99.90;;;;;;6236853;23;20032;-86
2023/01/22 12:21:41;;;;;;;26.73;15.00;;;0.40;99.90;;;;;;6235059;23;20038;-88
2023/01/22 12:24:35;;;;;;;27.83;16.08;;;0.30;99.90;;;;;;6250319;23;20051;-85
2023/01/22 12:27:37;;;;;;;24.23;14.60;;;0.20;99.90;;;;;;6268821;23;20012;-85
2023/01/22 12:30:59;;;;;;;24.90;15.77;;;0.10;99.90;;;;;;6258561;23;20047;-87
2023/01/22 12:33:47;;;;;;;27.30;16.63;;;0.00;99.90;;;;;;6229914;23;20020;-86
2023/01/22 12:36:52;;;;;;;27.73;16.50;;;0.00;99.90;;;;;;6229733;23;20020;-85
2023/01/22 12:40:06;;;;;;;27.13;16.45;;;0.00;1.00;;;;;;6226019;23;20095;-90
2023/01/22 12:43:07;;;;;;;20.98;12.90;;;0.10;99.90;;;;;;6222885;23;20035;-87
2023/01/22 12:46:08;;;;;;;21.10;12.25;;;0.20;99.90;;;;;;6224518;23;20448;-86
2023/01/22 12:49:08;;;;;;;21.05;12.20;;;0.30;99.90;;;;;;6245840;23;20020;-87
2023/01/22 12:51:58;;;;;;;22.90;12.20;;;0.50;99.90;;;;;;6244786;23;20376;-87
2023/01/22 12:54:54;;;;;;;17.65;11.68;;;0.50;99.90;;;;;;6240164;23;20127;-87
2023/01/22 12:57:41;;;;;;;19.50;10.88;;;0.40;99.90;;;;;;6248411;22;20042;-86
2023/01/22 13:00:37;;;;;;;19.98;12.20;;;0.40;59.90;;;;;;6245937;23;20031;-84
2023/01/22 13:03:28;;;;;;;163.88;22.50;;;0.40;43.70;;;;;;6221876;23;20101;-85
2023/01/22 13:06:42;;;;;;;22.02;11.98;;;0.40;35.80;;;;;;6241484;23;20032;-85
2023/01/22 13:09:43;;;;;;;20.85;12.00;;;0.50;41.20;;;;;;6242307;23;20391;-84
2023/01/22 13:12:44;;;;;;;18.88;12.07;;;0.50;1.00;;;;;;6244662;23;20032;-85
2023/01/22 13:15:37;;;;;;;20.40;11.82;;;0.50;1.00;;;;;;6225915;23;20107;-85
2023/01/22 13:18:30;;;;;;;20.58;12.73;;;0.50;1.00;;;;;;6246067;23;20105;-86
2023/01/22 13:21:28;;;;;;;23.88;12.88;;;0.60;1.00;;;;;;6225742;23;20020;-85
2023/01/22 13:24:18;;;;;;;23.08;13.15;;;0.70;1.00;;;;;;6233971;23;20025;-86
2023/01/22 13:27:13;;;;;;;21.13;12.85;;;0.70;1.00;;;;;;6248484;23;20020;-86
2023/01/22 13:30:16;;;;;;;20.88;10.73;;;0.70;1.00;;;;;;6252795;23;20047;-87
2023/01/22 13:33:15;;;;;;;19.88;12.63;;;0.60;1.00;;;;;;6229420;23;20086;-86
2023/01/22 13:36:09;;;;;;;23.08;12.15;;;0.60;1.00;;;;;;6247575;23;20028;-85
2023/01/22 13:38:58;;;;;;;21.70;12.73;;;0.60;1.00;;;;;;6248424;23;20043;-85
2023/01/22 13:41:53;;;;;;;23.58;13.68;;;0.60;1.00;;;;;;6225896;23;20021;-86
2023/01/22 13:44:46;;;;;;;20.23;12.50;;;0.60;1.00;;;;;;6245140;23;20032;-84
2023/01/22 13:47:35;;;;;;;22.42;13.38;;;0.60;1.00;;;;;;6221450;23;20025;-85
2023/01/22 13:50:25;;;;;;;23.60;14.27;;;0.50;1.00;;;;;;6245118;23;20443;-85
2023/01/22 13:53:39;;;;;;;23.05;12.75;;;0.50;1.00;;;;;;6228421;23;20038;-86
2023/01/22 13:56:29;;;;;;;23.33;13.90;;;0.40;1.00;;;;;;6223177;23;20123;-86
2023/01/22 13:59:19;;;;;;;26.67;13.98;;;0.40;1.00;;;;;;6244295;23;20113;-86
2023/01/22 14:02:21;;;;;;;23.08;14.32;;;0.50;1.00;;;;;;6247109;23;20020;-85
2023/01/22 14:05:17;;;;;;;30.17;16.20;;;0.40;1.00;;;;;;6246479;23;20100;-85
2023/01/22 14:08:06;;;;;;;23.50;13.55;;;0.40;1.00;;;;;;6223640;23;20247;-85
2023/01/22 14:11:01;;;;;;;27.13;14.32;;;0.20;29.90;;;;;;6245152;23;20078;-86
2023/01/22 14:13:53;;;;;;;29.83;16.20;;;0.30;99.90;;;;;;6246190;23;20038;-85
2023/01/22 14:20:50;;;;;;;24.77;14.52;;;0.20;99.90;;;;;;6217269;23;20031;-86
2023/01/22 14:23:47;;;;;;;28.30;15.50;;;0.20;99.90;;;;;;6243932;23;20034;-85
2023/01/22 14:26:39;;;;;;;32.03;16.08;;;0.20;1.00;;;;;;6223537;23;20122;-85
2023/01/22 14:29:29;;;;;;;19.70;12.23;;;0.10;1.00;;;;;;6225795;23;20024;-84
2023/01/22 14:32:18;;;;;;;31.38;16.80;;;0.20;99.90;;;;;;6249710;23;20024;-87
2023/01/22 14:35:07;;;;;;;30.33;16.95;;;0.20;99.90;;;;;;6250402;23;20028;-86
2023/01/22 14:37:57;;;;;;;27.83;16.30;;;0.20;99.90;;;;;;6251426;23;20032;-89
2023/01/22 14:40:44;;;;;;;29.95;17.25;;;0.30;99.90;;;;;;6256621;23;20102;-89
2023/01/22 14:43:34;;;;;;;29.58;16.05;;;0.20;99.90;;;;;;6236026;23;20031;-90
2023/01/22 14:46:23;;;;;;;29.60;15.80;;;0.20;99.90;;;;;;6233961;23;20125;-88
2023/01/22 14:49:15;;;;;;;32.55;17.20;;;0.20;99.90;;;;;;6226788;23;20416;-86
2023/01/22 14:52:03;;;;;;;33.30;17.33;;;0.20;99.90;;;;;;6223149;23;20107;-87
2023/01/22 14:54:50;;;;;;;28.20;16.83;;;0.20;1.00;;;;;;6224062;23;20048;-86
2023/01/22 14:57:37;;;;;;;27.67;16.45;;;0.20;1.00;;;;;;6249210;23;20103;-87